createdAt,value
2018-12-14T00:00:35.382Z,3.40
2018-12-14T00:03:02.852Z,3.40
2018-12-14T00:05:30.309Z,3.40
2018-12-14T00:07:57.764Z,3.40
2018-12-14T00:10:25.221Z,3.40
2018-12-14T00:12:52.684Z,3.40
2018-12-14T00:15:20.155Z,3.40
2018-12-14T00:17:47.611Z,3.40
2018-12-14T00:20:15.080Z,3.40
2018-12-14T00:22:42.520Z,3.30
2018-12-14T00:25:10.015Z,3.30
2018-12-14T00:27:37.552Z,3.40
2018-12-14T00:30:05.361Z,3.40
2018-12-14T00:32:32.893Z,3.30
2018-12-14T00:35:00.396Z,3.30
2018-12-14T00:37:27.883Z,3.30
2018-12-14T00:39:55.379Z,3.30
2018-12-14T00:42:22.819Z,3.30
2018-12-14T00:44:50.297Z,3.30
2018-12-14T00:47:17.842Z,3.30
2018-12-14T00:49:45.333Z,3.30
2018-12-14T00:52:12.787Z,3.30
2018-12-14T00:54:40.261Z,3.40
2018-12-14T00:57:07.766Z,3.40
2018-12-14T00:59:35.244Z,3.30
2018-12-14T01:02:04.680Z,3.30
2018-12-14T01:04:32.129Z,3.40
2018-12-14T01:06:59.601Z,3.50
2018-12-14T01:09:27.092Z,3.50
2018-12-14T01:11:58.191Z,3.40
2018-12-14T01:14:24.064Z,3.40
2018-12-14T01:16:51.581Z,3.40
2018-12-14T01:19:19.044Z,3.40
2018-12-14T01:21:46.522Z,3.40
2018-12-14T01:24:14.060Z,3.40
2018-12-14T01:26:41.594Z,3.40
2018-12-14T01:29:09.348Z,3.40
2018-12-14T01:31:36.856Z,3.40
2018-12-14T01:34:04.304Z,3.40
2018-12-14T01:36:31.760Z,3.30
2018-12-14T01:38:59.239Z,3.30
2018-12-14T01:41:26.693Z,3.40
2018-12-14T01:43:54.147Z,3.40
2018-12-14T01:46:21.613Z,3.30
2018-12-14T01:48:49.075Z,3.30
2018-12-14T01:51:16.527Z,3.30
2018-12-14T01:53:43.991Z,3.30
2018-12-14T01:56:11.478Z,3.30
2018-12-14T01:58:38.955Z,3.30
2018-12-14T02:01:06.436Z,3.30
2018-12-14T02:03:33.916Z,3.30
2018-12-14T02:06:01.394Z,3.30
2018-12-14T02:08:28.876Z,3.30
2018-12-14T02:10:56.349Z,3.30
2018-12-14T02:13:23.803Z,3.30
2018-12-14T02:15:51.295Z,3.30
2018-12-14T02:18:18.758Z,3.30
2018-12-14T02:20:46.208Z,3.30
2018-12-14T02:23:13.674Z,3.30
2018-12-14T02:25:41.137Z,3.30
2018-12-14T02:28:08.580Z,3.30
2018-12-14T02:30:40.777Z,3.30
2018-12-14T02:33:08.579Z,3.30
2018-12-14T02:35:36.106Z,3.30
2018-12-14T02:38:03.632Z,3.30
2018-12-14T02:40:31.090Z,3.30
2018-12-14T02:42:58.552Z,3.30
2018-12-14T02:45:26.172Z,3.30
2018-12-14T02:47:53.648Z,3.30
2018-12-14T02:50:21.146Z,3.30
2018-12-14T02:52:48.596Z,3.20
2018-12-14T02:55:16.082Z,3.30
2018-12-14T02:57:43.531Z,3.30
2018-12-14T03:00:11.076Z,3.30
2018-12-14T03:02:38.617Z,3.20
2018-12-14T03:05:06.109Z,3.20
2018-12-14T03:07:33.584Z,3.20
2018-12-14T03:10:01.044Z,3.20
2018-12-14T03:12:28.524Z,3.20
2018-12-14T03:14:55.981Z,3.20
2018-12-14T03:17:23.710Z,3.20
2018-12-14T03:19:51.322Z,3.20
2018-12-14T03:22:19.052Z,3.20
2018-12-14T03:24:46.519Z,3.20
2018-12-14T03:27:13.987Z,3.10
2018-12-14T03:29:41.427Z,3.10
2018-12-14T03:32:08.886Z,3.10
2018-12-14T03:34:36.350Z,3.10
2018-12-14T03:37:03.920Z,3.10
2018-12-14T03:39:31.378Z,3.10
2018-12-14T03:41:58.831Z,3.10
2018-12-14T03:44:26.354Z,3.10
2018-12-14T03:46:53.882Z,3.10
2018-12-14T03:49:21.448Z,3.00
2018-12-14T03:51:48.907Z,3.00
2018-12-14T03:54:16.419Z,3.00
2018-12-14T03:56:43.882Z,3.00
2018-12-14T03:59:11.371Z,3.00
2018-12-14T04:01:38.852Z,3.00
2018-12-14T04:04:06.327Z,3.00
2018-12-14T04:06:33.764Z,3.00
2018-12-14T04:09:01.238Z,3.00
2018-12-14T04:11:28.688Z,3.00
2018-12-14T04:13:56.208Z,3.00
2018-12-14T04:16:23.694Z,3.00
2018-12-14T04:18:51.156Z,2.90
2018-12-14T04:21:18.627Z,3.00
2018-12-14T04:23:46.085Z,3.00
2018-12-14T04:26:13.551Z,3.00
2018-12-14T04:28:41.040Z,3.00
2018-12-14T04:31:08.492Z,3.00
2018-12-14T04:33:36.211Z,2.90
2018-12-14T04:36:03.664Z,3.00
2018-12-14T04:38:31.146Z,3.00
2018-12-14T04:40:58.604Z,3.00
2018-12-14T04:43:26.053Z,2.90
2018-12-14T04:45:53.517Z,3.00
2018-12-14T04:48:20.959Z,2.90
2018-12-14T04:50:48.435Z,3.00
2018-12-14T04:53:15.876Z,3.00
2018-12-14T04:55:43.346Z,3.00
2018-12-14T04:58:10.872Z,2.90
2018-12-14T05:00:38.344Z,3.00
2018-12-14T05:03:05.887Z,3.00
2018-12-14T05:05:33.515Z,3.00
2018-12-14T05:08:01.152Z,3.00
2018-12-14T05:10:28.589Z,3.00
2018-12-14T05:12:56.411Z,3.00
2018-12-14T05:15:24.041Z,3.00
2018-12-14T05:17:51.506Z,3.00
2018-12-14T05:20:18.981Z,3.00
2018-12-14T05:22:46.446Z,3.00
2018-12-14T05:25:13.892Z,3.00
2018-12-14T05:27:41.366Z,3.00
2018-12-14T05:30:09.252Z,3.00
2018-12-14T05:32:36.730Z,3.00
2018-12-14T05:35:05.111Z,2.90
2018-12-14T05:37:32.594Z,2.90
2018-12-14T05:40:00.049Z,2.90
2018-12-14T05:42:27.529Z,2.90
2018-12-14T05:44:55.060Z,2.90
2018-12-14T05:47:22.579Z,2.90
2018-12-14T05:49:50.055Z,2.90
2018-12-14T05:52:17.529Z,2.90
2018-12-14T05:54:44.972Z,2.90
2018-12-14T05:57:12.491Z,2.90
2018-12-14T05:59:40.077Z,2.90
2018-12-14T06:02:07.531Z,2.80
2018-12-14T06:04:35.004Z,2.80
2018-12-14T06:07:02.449Z,2.90
2018-12-14T06:09:29.940Z,2.80
2018-12-14T06:11:57.389Z,2.80
2018-12-14T06:14:24.847Z,2.80
2018-12-14T06:16:52.299Z,2.80
2018-12-14T06:19:19.759Z,2.80
2018-12-14T06:21:47.226Z,2.80
2018-12-14T06:24:14.692Z,2.80
2018-12-14T06:26:42.147Z,2.80
2018-12-14T06:29:09.617Z,2.80
2018-12-14T06:31:37.058Z,2.90
2018-12-14T06:34:04.522Z,2.90
2018-12-14T06:36:32.005Z,2.80
2018-12-14T06:38:59.540Z,2.90
2018-12-14T06:41:26.993Z,2.80
2018-12-14T06:43:54.464Z,2.90
2018-12-14T06:46:21.934Z,2.80
2018-12-14T06:48:49.374Z,2.80
2018-12-14T06:51:16.846Z,2.80
2018-12-14T06:53:44.413Z,2.80
2018-12-14T06:56:11.869Z,2.70
2018-12-14T06:58:39.371Z,2.70
2018-12-14T07:01:06.866Z,2.70
2018-12-14T07:03:34.344Z,2.70
2018-12-14T07:06:01.821Z,2.70
2018-12-14T07:08:29.355Z,2.70
2018-12-14T07:10:56.832Z,2.70
2018-12-14T07:13:24.283Z,2.70
2018-12-14T07:15:51.772Z,2.70
2018-12-14T07:18:19.225Z,2.60
2018-12-14T07:20:46.986Z,2.60
2018-12-14T07:23:14.453Z,2.60
2018-12-14T07:25:42.015Z,2.60
2018-12-14T07:28:09.469Z,2.60
2018-12-14T07:30:37.108Z,2.60
2018-12-14T07:33:04.566Z,2.60
2018-12-14T07:35:32.108Z,2.60
2018-12-14T07:37:59.607Z,2.60
2018-12-14T07:40:27.050Z,2.50
2018-12-14T07:42:54.534Z,2.50
2018-12-14T07:45:21.987Z,2.40
2018-12-14T07:47:49.469Z,2.40
2018-12-14T07:50:16.913Z,2.40
2018-12-14T07:52:44.377Z,2.40
2018-12-14T07:55:11.833Z,2.40
2018-12-14T07:57:39.358Z,2.40
2018-12-14T08:00:07.816Z,2.40
2018-12-14T08:02:35.479Z,2.40
2018-12-14T08:05:04.253Z,2.40
2018-12-14T08:07:31.741Z,2.40
2018-12-14T08:09:59.210Z,2.40
2018-12-14T08:12:26.756Z,2.40
2018-12-14T08:14:54.283Z,2.40
2018-12-14T08:17:21.737Z,2.40
2018-12-14T08:19:49.193Z,2.40
2018-12-14T08:22:16.765Z,2.40
2018-12-14T08:24:44.215Z,2.50
2018-12-14T08:27:11.685Z,2.40
2018-12-14T08:29:39.164Z,2.40
2018-12-14T08:32:06.625Z,2.40
2018-12-14T08:34:34.105Z,2.40
2018-12-14T08:37:01.715Z,2.40
2018-12-14T08:39:29.173Z,2.40
2018-12-14T08:41:56.628Z,2.40
2018-12-14T08:44:24.134Z,2.40
2018-12-14T08:46:51.581Z,2.40
2018-12-14T08:49:19.213Z,2.40
2018-12-14T08:51:46.658Z,2.40
2018-12-14T08:54:14.124Z,2.50
2018-12-14T08:56:41.608Z,2.50
2018-12-14T08:59:09.071Z,2.50
2018-12-14T09:01:36.537Z,2.50
2018-12-14T09:04:04.004Z,2.50
2018-12-14T09:06:31.469Z,2.50
2018-12-14T09:08:58.948Z,2.50
2018-12-14T09:11:26.407Z,2.60
2018-12-14T09:13:53.896Z,2.50
2018-12-14T09:16:21.343Z,2.50
2018-12-14T09:18:48.796Z,2.50
2018-12-14T09:21:16.267Z,2.50
2018-12-14T09:23:43.736Z,2.50
2018-12-14T09:26:11.279Z,2.50
2018-12-14T09:28:39.003Z,2.50
2018-12-14T09:31:06.473Z,2.50
2018-12-14T09:33:33.968Z,2.50
2018-12-14T09:36:01.425Z,2.50
2018-12-14T09:38:28.869Z,2.50
2018-12-14T09:40:56.340Z,2.60
2018-12-14T09:43:23.985Z,2.60
2018-12-14T09:45:51.444Z,2.60
2018-12-14T09:48:18.904Z,2.60
2018-12-14T09:50:46.469Z,2.60
2018-12-14T09:53:13.928Z,2.60
2018-12-14T09:55:41.381Z,2.60
2018-12-14T09:58:08.848Z,2.70
2018-12-14T10:00:36.318Z,2.70
2018-12-14T10:03:03.941Z,2.70
2018-12-14T10:05:31.396Z,2.70
2018-12-14T10:07:58.888Z,2.70
2018-12-14T10:10:26.385Z,2.70
2018-12-14T10:12:53.860Z,2.70
2018-12-14T10:15:21.314Z,2.60
2018-12-14T10:17:48.806Z,2.70
2018-12-14T10:20:16.287Z,2.70
2018-12-14T10:22:43.744Z,2.70
2018-12-14T10:25:11.213Z,2.70
2018-12-14T10:27:38.664Z,2.70
2018-12-14T10:30:08.682Z,2.70
2018-12-14T10:32:36.133Z,2.60
2018-12-14T10:35:05.551Z,2.70
2018-12-14T10:37:32.996Z,2.70
2018-12-14T10:40:00.488Z,2.70
2018-12-14T10:42:28.025Z,2.70
2018-12-14T10:44:55.481Z,2.70
2018-12-14T10:47:22.933Z,2.70
2018-12-14T10:49:50.413Z,2.70
2018-12-14T10:52:17.864Z,2.70
2018-12-14T10:54:45.505Z,2.70
2018-12-14T10:57:16.148Z,2.80
2018-12-14T10:59:42.423Z,2.80
2018-12-14T11:02:09.870Z,2.80
2018-12-14T11:04:37.362Z,2.80
2018-12-14T11:07:04.823Z,2.80
2018-12-14T11:09:32.274Z,2.80
2018-12-14T11:11:59.740Z,2.80
2018-12-14T11:14:27.948Z,2.80
2018-12-14T11:16:55.396Z,2.80
2018-12-14T11:19:22.859Z,2.80
2018-12-14T11:21:50.317Z,2.80
2018-12-14T11:24:17.823Z,2.80
2018-12-14T11:26:45.290Z,2.80
2018-12-14T11:29:12.756Z,2.80
2018-12-14T11:31:40.230Z,2.70
2018-12-14T11:34:08.635Z,2.70
2018-12-14T11:36:36.112Z,2.70
2018-12-14T11:39:04.742Z,2.70
2018-12-14T11:41:32.411Z,2.70
2018-12-14T11:43:59.879Z,2.70
2018-12-14T11:46:27.328Z,2.70
2018-12-14T11:48:54.792Z,2.80
2018-12-14T11:51:22.327Z,2.80
2018-12-14T11:53:49.884Z,2.80
2018-12-14T11:56:17.333Z,2.80
2018-12-14T11:58:44.823Z,2.80
2018-12-14T12:01:12.294Z,2.80
2018-12-14T12:03:42.757Z,2.80
2018-12-14T12:06:09.226Z,2.80
2018-12-14T12:08:36.786Z,2.80
2018-12-14T12:11:04.248Z,2.80
2018-12-14T12:13:31.715Z,2.80
2018-12-14T12:15:59.240Z,2.80
2018-12-14T12:18:26.723Z,2.80
2018-12-14T12:20:54.165Z,2.80
2018-12-14T12:23:21.636Z,2.80
2018-12-14T12:25:49.106Z,2.80
2018-12-14T12:28:16.634Z,2.80
2018-12-14T12:30:44.105Z,2.80
2018-12-14T12:33:11.592Z,2.80
2018-12-14T12:35:39.074Z,2.70
2018-12-14T12:38:06.552Z,2.70
2018-12-14T12:40:34.015Z,2.70
2018-12-14T12:43:01.496Z,2.70
2018-12-14T12:45:28.956Z,2.70
2018-12-14T12:47:56.443Z,2.70
2018-12-14T12:50:24.053Z,2.70
2018-12-14T12:52:51.512Z,2.70
2018-12-14T12:55:18.992Z,2.70
2018-12-14T12:57:46.475Z,2.70
2018-12-14T13:00:14.114Z,2.70
2018-12-14T13:02:41.589Z,2.70
2018-12-14T13:05:09.053Z,2.70
2018-12-14T13:07:36.517Z,2.70
2018-12-14T13:10:04.132Z,2.70
2018-12-14T13:12:31.585Z,2.70
2018-12-14T13:14:59.059Z,2.70
2018-12-14T13:17:26.513Z,2.70
2018-12-14T13:19:53.996Z,2.70
2018-12-14T13:22:21.444Z,2.70
2018-12-14T13:24:48.908Z,2.70
2018-12-14T13:27:20.236Z,2.70
2018-12-14T13:29:45.846Z,2.70
2018-12-14T13:32:13.311Z,2.70
2018-12-14T13:34:41.000Z,2.70
2018-12-14T13:37:08.508Z,2.70
2018-12-14T13:39:35.983Z,2.60
2018-12-14T13:42:03.666Z,2.60
2018-12-14T13:44:31.891Z,2.60
2018-12-14T13:46:59.483Z,2.60
2018-12-14T13:49:27.025Z,2.60
2018-12-14T13:51:54.557Z,2.60
2018-12-14T13:54:22.051Z,2.60
2018-12-14T13:56:49.519Z,2.50
2018-12-14T13:59:16.976Z,2.50
2018-12-14T14:01:44.465Z,2.50
2018-12-14T14:04:11.942Z,2.50
2018-12-14T14:06:39.388Z,2.50
2018-12-14T14:09:07.646Z,2.50
2018-12-14T14:11:35.112Z,2.50
2018-12-14T14:14:02.590Z,2.60
2018-12-14T14:16:30.056Z,2.60
2018-12-14T14:18:57.508Z,2.50
2018-12-14T14:21:24.949Z,2.60
2018-12-14T14:23:52.417Z,2.50
2018-12-14T14:26:19.979Z,2.60
2018-12-14T14:28:47.423Z,2.60
2018-12-14T14:31:14.919Z,2.60
2018-12-14T14:33:42.385Z,2.60
2018-12-14T14:36:09.848Z,2.60
2018-12-14T14:38:37.332Z,2.60
2018-12-14T14:41:04.796Z,2.60
2018-12-14T14:43:32.280Z,2.60
2018-12-14T14:45:59.749Z,2.60
2018-12-14T14:48:27.221Z,2.60
2018-12-14T14:50:54.729Z,2.60
2018-12-14T14:53:22.326Z,2.60
2018-12-14T14:55:49.785Z,2.60
2018-12-14T14:58:17.271Z,2.60
2018-12-14T15:00:44.744Z,2.60
2018-12-14T15:03:12.431Z,2.60
2018-12-14T15:05:39.888Z,2.60
2018-12-14T15:08:07.414Z,2.60
2018-12-14T15:10:34.910Z,2.50
2018-12-14T15:13:02.344Z,2.50
2018-12-14T15:15:29.808Z,2.50
2018-12-14T15:17:57.282Z,2.50
2018-12-14T15:20:24.819Z,2.40
2018-12-14T15:22:52.292Z,2.40
2018-12-14T15:25:19.777Z,2.40
2018-12-14T15:27:47.251Z,2.40
2018-12-14T15:30:14.769Z,2.40
2018-12-14T15:32:42.208Z,2.40
2018-12-14T15:35:09.758Z,2.40
2018-12-14T15:37:37.254Z,2.40
2018-12-14T15:40:07.170Z,2.40
2018-12-14T15:42:34.652Z,2.40
2018-12-14T15:45:02.113Z,2.40
2018-12-14T15:47:29.635Z,2.40
2018-12-14T15:49:57.108Z,2.40
2018-12-14T15:52:24.623Z,2.40
2018-12-14T15:54:52.174Z,2.40
2018-12-14T15:57:20.542Z,2.40
2018-12-14T15:59:48.102Z,2.40
2018-12-14T16:02:15.588Z,2.40
2018-12-14T16:04:43.286Z,2.40
2018-12-14T16:07:10.907Z,2.30
2018-12-14T16:09:38.345Z,2.30
2018-12-14T16:12:05.810Z,2.30
2018-12-14T16:14:34.478Z,2.30
2018-12-14T16:17:02.209Z,2.30
2018-12-14T16:19:29.678Z,2.30
2018-12-14T16:21:57.176Z,2.40
2018-12-14T16:24:24.664Z,2.40
2018-12-14T16:26:52.226Z,2.30
2018-12-14T16:29:19.812Z,2.30
2018-12-14T16:31:47.265Z,2.40
2018-12-14T16:34:14.749Z,2.40
2018-12-14T16:36:42.231Z,2.40
2018-12-14T16:39:09.734Z,2.30
2018-12-14T16:41:37.289Z,2.40
2018-12-14T16:44:04.850Z,2.30
2018-12-14T16:46:32.326Z,2.30
2018-12-14T16:48:59.853Z,2.30
2018-12-14T16:51:27.374Z,2.30
2018-12-14T16:54:01.589Z,2.30
2018-12-14T16:56:29.151Z,2.40
2018-12-14T16:58:56.745Z,2.40
2018-12-14T17:01:24.215Z,2.40
2018-12-14T17:03:51.669Z,2.40
2018-12-14T17:06:19.142Z,2.40
2018-12-14T17:08:46.598Z,2.40
2018-12-14T17:11:14.080Z,2.40
2018-12-14T17:13:41.564Z,2.40
2018-12-14T17:16:09.009Z,2.40
2018-12-14T17:18:36.746Z,2.40
2018-12-14T17:21:04.234Z,2.40
2018-12-14T17:23:31.700Z,2.40
2018-12-14T17:25:59.257Z,2.40
2018-12-14T17:28:26.721Z,2.40
2018-12-14T17:30:54.263Z,2.40
2018-12-14T17:33:21.804Z,2.40
2018-12-14T17:35:49.254Z,2.40
2018-12-14T17:38:16.713Z,2.50
2018-12-14T17:40:44.206Z,2.40
2018-12-14T17:43:11.671Z,2.40
2018-12-14T17:45:39.867Z,2.40
2018-12-14T17:48:07.581Z,2.40
2018-12-14T17:50:35.067Z,2.40
2018-12-14T17:53:02.574Z,2.30
2018-12-14T17:55:30.040Z,2.30
2018-12-14T17:57:57.527Z,2.30
2018-12-14T18:00:24.992Z,2.40
2018-12-14T18:02:52.464Z,2.30
2018-12-14T18:05:19.929Z,2.20
2018-12-14T18:07:47.401Z,2.20
2018-12-14T18:10:14.865Z,2.20
2018-12-14T18:12:42.326Z,2.10
2018-12-14T18:15:09.794Z,2.10
2018-12-14T18:17:37.304Z,2.10
2018-12-14T18:20:06.138Z,2.10
2018-12-14T18:22:33.688Z,2.10
2018-12-14T18:25:01.536Z,2.10
2018-12-14T18:27:29.013Z,2.10
2018-12-14T18:29:56.970Z,2.00
2018-12-14T18:32:24.434Z,2.10
2018-12-14T18:34:52.026Z,2.10
2018-12-14T18:37:19.566Z,2.10
2018-12-14T18:39:47.049Z,2.10
2018-12-14T18:42:14.521Z,2.10
2018-12-14T18:44:42.021Z,2.10
2018-12-14T18:47:09.487Z,2.10
2018-12-14T18:49:37.071Z,2.10
2018-12-14T18:52:04.532Z,2.20
2018-12-14T18:54:32.239Z,2.20
2018-12-14T18:56:59.716Z,2.20
2018-12-14T18:59:27.295Z,2.20
2018-12-14T19:01:54.779Z,2.20
2018-12-14T19:04:22.343Z,2.20
2018-12-14T19:06:49.840Z,2.20
2018-12-14T19:09:17.334Z,2.20
2018-12-14T19:11:44.817Z,2.10
2018-12-14T19:14:12.296Z,2.10
2018-12-14T19:16:39.789Z,2.10
2018-12-14T19:19:07.288Z,2.10
2018-12-14T19:21:34.777Z,2.10
2018-12-14T19:24:02.274Z,2.20
2018-12-14T19:26:29.719Z,2.20
2018-12-14T19:28:57.200Z,2.20
2018-12-14T19:31:24.657Z,2.20
2018-12-14T19:33:52.129Z,2.10
2018-12-14T19:36:19.658Z,2.10
2018-12-14T19:38:47.115Z,2.10
2018-12-14T19:41:14.613Z,2.10
2018-12-14T19:43:42.090Z,2.10
2018-12-14T19:46:09.576Z,2.10
2018-12-14T19:48:37.065Z,2.10
2018-12-14T19:51:04.603Z,2.10
2018-12-14T19:53:32.116Z,2.10
2018-12-14T19:55:59.699Z,2.10
2018-12-14T19:58:27.212Z,2.10
2018-12-14T20:00:54.715Z,2.10
2018-12-14T20:03:22.435Z,2.10
2018-12-14T20:05:50.172Z,2.10
2018-12-14T20:08:18.050Z,2.10
2018-12-14T20:10:45.716Z,2.10
2018-12-14T20:13:13.349Z,2.20
2018-12-14T20:15:40.841Z,2.20
2018-12-14T20:18:08.350Z,2.20
2018-12-14T20:20:35.798Z,2.20
2018-12-14T20:23:03.262Z,2.20
2018-12-14T20:25:30.739Z,2.20
2018-12-14T20:27:58.292Z,2.20
2018-12-14T20:30:25.828Z,2.20
2018-12-14T20:32:53.313Z,2.20
2018-12-14T20:35:21.070Z,2.20
2018-12-14T20:37:48.820Z,2.20
2018-12-14T20:40:16.340Z,2.20
2018-12-14T20:42:43.806Z,2.20
2018-12-14T20:45:11.338Z,2.20
2018-12-14T20:47:38.873Z,2.20
2018-12-14T20:50:06.737Z,2.20
2018-12-14T20:52:34.218Z,2.20
2018-12-14T20:55:01.718Z,2.20
2018-12-14T20:57:29.222Z,2.20
2018-12-14T20:59:56.718Z,2.20
2018-12-14T21:02:24.188Z,2.20
2018-12-14T21:04:51.858Z,2.20
2018-12-14T21:07:19.426Z,2.10
2018-12-14T21:09:46.894Z,2.10
2018-12-14T21:12:14.377Z,2.00
2018-12-14T21:14:41.893Z,2.00
2018-12-14T21:17:10.482Z,2.00
2018-12-14T21:19:39.427Z,2.00
2018-12-14T21:22:10.896Z,2.00
2018-12-14T21:24:39.194Z,2.00
2018-12-14T21:27:06.705Z,2.10
2018-12-14T21:29:34.177Z,2.10
2018-12-14T21:32:01.639Z,2.10
2018-12-14T21:34:29.102Z,2.10
2018-12-14T21:36:56.598Z,2.10
2018-12-14T21:39:24.057Z,2.10
2018-12-14T21:41:51.576Z,2.20
2018-12-14T21:44:19.071Z,2.20
2018-12-14T21:46:46.627Z,2.20
2018-12-14T21:49:14.162Z,2.20
2018-12-14T21:51:41.781Z,2.20
2018-12-14T21:54:09.261Z,2.20
2018-12-14T21:56:37.502Z,2.10
2018-12-14T21:59:05.001Z,2.10
2018-12-14T22:01:32.461Z,2.10
2018-12-14T22:03:59.996Z,2.10
2018-12-14T22:06:27.532Z,2.10
2018-12-14T22:08:55.004Z,2.20
2018-12-14T22:11:22.498Z,2.20
2018-12-14T22:13:50.078Z,2.20
2018-12-14T22:16:17.545Z,2.20
2018-12-14T22:18:45.028Z,2.20
2018-12-14T22:21:12.480Z,2.20
2018-12-14T22:23:39.989Z,2.20
2018-12-14T22:26:07.494Z,2.20
2018-12-14T22:28:35.092Z,2.20
2018-12-14T22:31:02.538Z,2.10
2018-12-14T22:33:30.003Z,2.20
2018-12-14T22:35:57.477Z,2.10
2018-12-14T22:38:24.937Z,2.20
2018-12-14T22:40:52.365Z,2.20
2018-12-14T22:43:19.835Z,2.10
2018-12-14T22:45:47.302Z,2.10
2018-12-14T22:48:14.763Z,2.10
2018-12-14T22:50:42.315Z,2.10
2018-12-14T22:53:09.826Z,2.10
2018-12-14T22:55:37.383Z,2.10
2018-12-14T22:58:04.835Z,2.00
2018-12-14T23:00:32.416Z,2.00
2018-12-14T23:02:59.968Z,2.00
2018-12-14T23:05:27.448Z,2.00
2018-12-14T23:07:54.900Z,2.00
2018-12-14T23:10:22.378Z,2.00
2018-12-14T23:12:49.863Z,2.00
2018-12-14T23:15:17.348Z,2.00
2018-12-14T23:17:44.775Z,2.00
2018-12-14T23:20:12.284Z,2.00
2018-12-14T23:22:39.745Z,2.00
2018-12-14T23:25:07.392Z,2.00
2018-12-14T23:27:34.863Z,2.00
2018-12-14T23:30:02.440Z,2.00
2018-12-14T23:32:29.876Z,2.00
2018-12-14T23:34:57.372Z,2.00
2018-12-14T23:37:24.918Z,2.00
2018-12-14T23:39:52.426Z,2.00
2018-12-14T23:42:19.936Z,2.00
2018-12-14T23:44:47.409Z,2.00
2018-12-14T23:47:14.870Z,2.00
2018-12-14T23:49:42.347Z,2.00
2018-12-14T23:52:09.872Z,2.00
2018-12-14T23:54:37.294Z,2.00
2018-12-14T23:57:04.751Z,2.00
2018-12-14T23:59:32.252Z,1.90
